createdAt,value
2023-02-08T00:01:46.370Z,29.97
2023-02-08T00:04:12.852Z,30.40
2023-02-08T00:06:39.453Z,29.93
2023-02-08T00:09:07.136Z,29.90
2023-02-08T00:11:34.826Z,30.43
2023-02-08T00:14:01.314Z,29.17
2023-02-08T00:16:27.789Z,30.80
2023-02-08T00:18:54.293Z,31.73
2023-02-08T00:21:20.786Z,31.47
2023-02-08T00:23:47.316Z,30.10
2023-02-08T00:26:14.777Z,29.33
2023-02-08T00:28:41.280Z,31.33
2023-02-08T00:31:08.175Z,31.53
2023-02-08T00:33:34.965Z,31.63
2023-02-08T00:36:02.498Z,31.47
2023-02-08T00:38:29.378Z,30.50
2023-02-08T00:40:56.113Z,31.43
2023-02-08T00:43:22.799Z,29.77
2023-02-08T00:45:55.233Z,29.40
2023-02-08T00:48:21.871Z,29.50
2023-02-08T00:51:01.940Z,31.77
2023-02-08T00:53:28.510Z,30.67
2023-02-08T00:55:55.992Z,29.47
2023-02-08T00:58:23.241Z,31.13
2023-02-08T01:00:54.004Z,29.63
2023-02-08T01:03:22.014Z,31.77
2023-02-08T01:05:48.481Z,31.17
2023-02-08T01:08:14.997Z,30.70
2023-02-08T01:10:42.042Z,31.43
2023-02-08T01:13:09.852Z,29.70
2023-02-08T01:15:36.537Z,29.57
2023-02-08T01:18:03.599Z,30.77
2023-02-08T01:20:30.221Z,28.37
2023-02-08T01:22:56.966Z,29.10
2023-02-08T01:25:23.442Z,31.67
2023-02-08T01:27:50.064Z,31.03
2023-02-08T01:30:17.635Z,29.23
2023-02-08T01:32:44.197Z,30.00
2023-02-08T01:35:10.731Z,29.53
2023-02-08T01:37:37.204Z,28.50
2023-02-08T01:40:03.852Z,29.27
2023-02-08T01:42:30.367Z,28.70
2023-02-08T01:45:15.601Z,30.20
2023-02-08T01:47:42.951Z,30.57
2023-02-08T01:50:10.014Z,29.50
2023-02-08T01:52:36.807Z,30.60
2023-02-08T01:55:09.427Z,29.73
2023-02-08T01:57:35.927Z,30.00
2023-02-08T02:00:09.072Z,30.43
2023-02-08T02:02:36.534Z,31.00
2023-02-08T02:05:03.286Z,30.50
2023-02-08T02:07:30.202Z,31.20
2023-02-08T02:10:01.867Z,31.93
2023-02-08T02:12:30.257Z,32.13
2023-02-08T02:14:56.778Z,30.60
2023-02-08T02:17:23.286Z,32.73
2023-02-08T02:19:49.619Z,30.50
2023-02-08T02:22:46.680Z,30.17
2023-02-08T02:25:28.395Z,27.63
2023-02-08T02:28:32.294Z,28.30
2023-02-08T02:31:30.500Z,28.93
2023-02-08T02:34:09.509Z,29.07
2023-02-08T02:37:02.263Z,29.23
2023-02-08T02:39:55.516Z,29.57
2023-02-08T02:42:49.833Z,28.23
2023-02-08T02:45:28.233Z,27.67
2023-02-08T02:48:17.390Z,28.37
2023-02-08T02:50:46.638Z,27.60
2023-02-08T02:53:33.369Z,28.47
2023-02-08T02:56:04.396Z,27.47
2023-02-08T02:58:31.465Z,28.00
2023-02-08T03:00:58.800Z,28.43
2023-02-08T03:03:27.593Z,29.83
2023-02-08T03:05:58.790Z,28.67
2023-02-08T03:08:44.025Z,30.63
2023-02-08T03:11:16.742Z,28.37
2023-02-08T03:13:51.457Z,28.57
2023-02-08T03:16:21.315Z,29.17
2023-02-08T03:19:02.338Z,29.10
2023-02-08T03:21:39.115Z,28.87
2023-02-08T03:24:28.683Z,29.83
2023-02-08T03:27:13.342Z,27.63
2023-02-08T03:30:11.035Z,28.00
2023-02-08T03:32:55.161Z,28.83
2023-02-08T03:35:32.865Z,28.87
2023-02-08T03:38:16.251Z,27.37
2023-02-08T03:40:48.201Z,27.60
2023-02-08T03:43:22.032Z,27.77
2023-02-08T03:45:52.102Z,28.43
2023-02-08T03:48:19.128Z,28.80
2023-02-08T03:50:49.643Z,26.70
2023-02-08T03:53:19.371Z,27.67
2023-02-08T03:55:47.058Z,27.10
2023-02-08T03:58:22.228Z,28.13
2023-02-08T04:00:56.055Z,27.10
2023-02-08T04:03:29.772Z,27.83
2023-02-08T04:05:56.429Z,28.33
2023-02-08T04:08:23.058Z,28.07
2023-02-08T04:10:49.630Z,28.47
2023-02-08T04:13:16.057Z,27.70
2023-02-08T04:15:44.214Z,27.77
2023-02-08T04:18:10.875Z,26.77
2023-02-08T04:20:37.306Z,26.70
2023-02-08T04:23:03.713Z,26.37
2023-02-08T04:25:30.176Z,26.60
2023-02-08T04:27:56.658Z,26.53
2023-02-08T04:30:23.100Z,26.60
2023-02-08T04:32:49.537Z,26.80
2023-02-08T04:35:15.955Z,26.53
2023-02-08T04:37:42.376Z,26.83
2023-02-08T04:40:09.443Z,26.97
2023-02-08T04:42:35.922Z,26.90
2023-02-08T04:45:02.340Z,26.03
2023-02-08T04:47:28.754Z,26.30
2023-02-08T04:49:55.196Z,25.17
2023-02-08T04:52:21.732Z,25.37
2023-02-08T04:54:48.150Z,25.80
2023-02-08T04:57:15.024Z,24.77
2023-02-08T04:59:41.474Z,25.13
2023-02-08T05:02:07.956Z,25.67
2023-02-08T05:04:34.532Z,24.43
2023-02-08T05:07:01.088Z,25.63
2023-02-08T05:09:27.602Z,24.27
2023-02-08T05:11:54.098Z,25.17
2023-02-08T05:14:20.597Z,24.43
2023-02-08T05:16:47.030Z,24.73
2023-02-08T05:19:13.526Z,26.33
2023-02-08T05:21:39.962Z,25.10
2023-02-08T05:24:07.199Z,24.10
2023-02-08T05:26:33.721Z,25.33
2023-02-08T05:29:00.217Z,25.33
2023-02-08T05:31:26.786Z,24.93
2023-02-08T05:33:53.463Z,25.83
2023-02-08T05:36:20.655Z,24.10
2023-02-08T05:38:47.179Z,25.53
2023-02-08T05:41:13.615Z,25.80
2023-02-08T05:43:40.041Z,25.00
2023-02-08T05:46:06.518Z,25.60
2023-02-08T05:48:33.226Z,26.90
2023-02-08T05:51:00.504Z,25.80
2023-02-08T05:53:27.377Z,25.63
2023-02-08T05:55:53.792Z,27.23
2023-02-08T05:58:20.218Z,26.97
2023-02-08T06:00:47.076Z,26.97
2023-02-08T06:03:13.691Z,26.07
2023-02-08T06:05:40.806Z,26.70
2023-02-08T06:08:07.778Z,27.20
2023-02-08T06:10:34.584Z,27.27
2023-02-08T06:13:01.589Z,27.97
2023-02-08T06:15:28.334Z,29.53
2023-02-08T06:17:54.941Z,31.50
2023-02-08T06:20:21.357Z,34.27
2023-02-08T06:22:47.828Z,33.73
2023-02-08T06:25:14.358Z,35.73
2023-02-08T06:27:40.836Z,37.40
2023-02-08T06:30:07.464Z,37.03
2023-02-08T06:32:33.934Z,38.27
2023-02-08T06:35:00.385Z,33.83
2023-02-08T06:37:26.857Z,29.60
2023-02-08T06:39:53.296Z,27.73
2023-02-08T06:42:19.722Z,26.03
2023-02-08T06:44:54.690Z,24.07
2023-02-08T06:47:22.754Z,25.00
2023-02-08T06:49:49.205Z,24.57
2023-02-08T06:52:15.632Z,24.50
2023-02-08T06:54:42.059Z,24.93
2023-02-08T06:57:08.646Z,25.53
2023-02-08T06:59:37.276Z,25.67
2023-02-08T07:02:03.867Z,25.33
2023-02-08T07:04:30.403Z,26.57
2023-02-08T07:06:56.944Z,27.10
2023-02-08T07:09:23.429Z,25.77
2023-02-08T07:11:49.828Z,26.17
2023-02-08T07:14:16.292Z,26.07
2023-02-08T07:16:42.728Z,25.77
2023-02-08T07:19:09.191Z,25.63
2023-02-08T07:21:35.661Z,26.33
2023-02-08T07:24:02.142Z,26.17
2023-02-08T07:26:28.537Z,24.53
2023-02-08T07:28:54.949Z,26.97
2023-02-08T07:31:21.442Z,26.60
2023-02-08T07:33:47.925Z,28.17
2023-02-08T07:36:14.349Z,26.47
2023-02-08T07:38:40.834Z,27.63
2023-02-08T07:41:12.960Z,27.70
2023-02-08T07:43:40.367Z,26.23
2023-02-08T07:46:16.915Z,26.83
2023-02-08T07:48:43.493Z,26.50
2023-02-08T07:51:10.617Z,24.13
2023-02-08T07:53:37.084Z,26.47
2023-02-08T07:56:03.727Z,25.93
2023-02-08T07:58:30.289Z,27.10
2023-02-08T08:00:56.768Z,24.87
2023-02-08T08:03:23.172Z,26.70
2023-02-08T08:05:52.577Z,26.33
2023-02-08T08:08:20.143Z,26.37
2023-02-08T08:10:46.606Z,24.33
2023-02-08T08:13:13.775Z,31.00
2023-02-08T08:15:40.734Z,29.03
2023-02-08T08:18:07.677Z,29.33
2023-02-08T08:20:34.172Z,29.10
2023-02-08T08:23:00.983Z,27.73
2023-02-08T08:25:27.568Z,30.93
2023-02-08T08:27:54.381Z,28.30
2023-02-08T08:30:21.809Z,30.40
2023-02-08T08:32:48.289Z,28.30
2023-02-08T08:35:14.781Z,30.80
2023-02-08T08:37:41.248Z,29.77
2023-02-08T08:40:08.756Z,29.43
2023-02-08T08:42:36.365Z,29.00
2023-02-08T08:45:03.958Z,28.83
2023-02-08T08:47:30.763Z,28.90
2023-02-08T08:49:57.219Z,31.30
2023-02-08T08:52:23.789Z,28.93
2023-02-08T08:54:50.252Z,30.30
2023-02-08T08:57:17.174Z,30.53
2023-02-08T08:59:43.612Z,29.23
2023-02-08T09:02:12.778Z,30.37
2023-02-08T09:04:41.008Z,30.47
2023-02-08T09:07:08.539Z,33.33
2023-02-08T09:09:35.394Z,30.43
2023-02-08T09:12:02.815Z,30.53
2023-02-08T09:14:29.269Z,32.13
2023-02-08T09:16:55.683Z,32.47
2023-02-08T09:19:22.095Z,32.37
2023-02-08T09:21:48.568Z,31.13
2023-02-08T09:24:16.080Z,32.57
2023-02-08T09:26:42.520Z,31.97
2023-02-08T09:29:08.922Z,32.30
2023-02-08T09:31:37.751Z,31.30
2023-02-08T09:34:05.475Z,32.33
2023-02-08T09:36:34.182Z,31.77
2023-02-08T09:39:24.324Z,31.80
2023-02-08T09:42:19.516Z,31.97
2023-02-08T09:45:08.405Z,31.53
2023-02-08T09:47:36.539Z,30.80
2023-02-08T09:50:31.698Z,31.97
2023-02-08T09:53:06.583Z,30.87
2023-02-08T09:55:51.935Z,31.10
2023-02-08T09:58:29.623Z,32.07
2023-02-08T10:00:56.502Z,30.83
2023-02-08T10:03:41.529Z,31.87
2023-02-08T10:06:10.625Z,30.43
2023-02-08T10:08:37.224Z,30.93
2023-02-08T10:11:29.383Z,30.57
2023-02-08T10:14:26.780Z,29.57
2023-02-08T10:17:26.625Z,31.07
2023-02-08T10:20:35.159Z,31.97
2023-02-08T10:23:04.651Z,31.70
2023-02-08T10:26:00.161Z,31.43
2023-02-08T10:28:32.708Z,31.40
2023-02-08T10:31:17.986Z,30.07
2023-02-08T10:34:06.174Z,30.83
2023-02-08T10:36:41.832Z,30.97
2023-02-08T10:39:23.909Z,31.93
2023-02-08T10:41:51.243Z,29.67
2023-02-08T10:44:31.866Z,30.97
2023-02-08T10:47:19.668Z,31.43
2023-02-08T10:50:00.247Z,30.20
2023-02-08T10:52:27.262Z,31.30
2023-02-08T10:54:54.574Z,32.07
2023-02-08T10:57:24.298Z,31.93
2023-02-08T11:00:01.455Z,32.03
2023-02-08T11:02:38.433Z,30.60
2023-02-08T11:05:40.531Z,31.13
2023-02-08T11:08:09.869Z,30.63
2023-02-08T11:10:37.697Z,31.40
2023-02-08T11:13:13.172Z,32.17
2023-02-08T11:15:52.531Z,31.07
2023-02-08T11:18:27.728Z,30.20
2023-02-08T11:20:59.645Z,29.90
2023-02-08T11:23:31.998Z,31.40
2023-02-08T11:26:37.386Z,32.50
2023-02-08T11:29:12.016Z,32.40
2023-02-08T11:31:40.625Z,33.67
2023-02-08T11:34:13.309Z,33.30
2023-02-08T11:36:47.154Z,33.17
2023-02-08T11:39:22.717Z,29.93
2023-02-08T11:41:51.564Z,31.77
2023-02-08T11:44:33.483Z,32.10
2023-02-08T11:47:01.932Z,31.57
2023-02-08T11:49:36.176Z,30.20
2023-02-08T11:52:02.911Z,29.40
2023-02-08T11:54:33.870Z,31.03
2023-02-08T11:57:13.430Z,30.97
2023-02-08T11:59:40.008Z,30.20
2023-02-08T12:02:36.711Z,32.23
2023-02-08T12:05:05.020Z,31.50
2023-02-08T12:07:49.604Z,31.03
2023-02-08T12:10:50.940Z,30.63
2023-02-08T12:13:28.084Z,29.93
2023-02-08T12:16:04.840Z,31.13
2023-02-08T12:18:44.397Z,31.10
2023-02-08T12:21:23.127Z,30.83
2023-02-08T12:23:58.535Z,31.83
2023-02-08T12:26:39.782Z,32.10
2023-02-08T12:29:08.812Z,31.33
2023-02-08T12:32:02.721Z,31.60
2023-02-08T12:34:41.582Z,30.50
2023-02-08T12:37:47.033Z,29.73
2023-02-08T12:40:41.154Z,30.10
2023-02-08T12:43:23.021Z,30.20
2023-02-08T12:46:21.880Z,31.93
2023-02-08T12:49:18.427Z,32.63
2023-02-08T12:52:13.172Z,30.33
2023-02-08T12:54:58.060Z,31.00
2023-02-08T12:57:25.946Z,30.87
2023-02-08T13:00:18.100Z,30.60
2023-02-08T13:02:57.282Z,30.07
2023-02-08T13:05:27.873Z,30.77
2023-02-08T13:08:03.729Z,29.03
2023-02-08T13:10:36.837Z,28.70
2023-02-08T13:13:14.536Z,28.00
2023-02-08T13:15:45.083Z,30.37
2023-02-08T13:18:19.032Z,28.53
2023-02-08T13:20:48.317Z,30.80
2023-02-08T13:23:20.772Z,28.43
2023-02-08T13:25:48.551Z,29.20
2023-02-08T13:28:19.628Z,29.90
2023-02-08T13:30:51.816Z,28.43
2023-02-08T13:33:31.248Z,27.97
2023-02-08T13:35:57.931Z,28.73
2023-02-08T13:38:31.067Z,30.37
2023-02-08T13:41:26.671Z,28.47
2023-02-08T13:44:04.206Z,27.33
2023-02-08T13:46:44.930Z,29.13
2023-02-08T13:49:44.796Z,28.33
2023-02-08T13:52:13.128Z,28.57
2023-02-08T13:54:39.638Z,29.20
2023-02-08T13:57:44.332Z,28.07
2023-02-08T14:00:23.298Z,29.10
2023-02-08T14:03:15.248Z,29.13
2023-02-08T14:05:41.936Z,29.73
2023-02-08T14:08:20.081Z,28.90
2023-02-08T14:10:52.012Z,28.63
2023-02-08T14:13:28.070Z,31.10
2023-02-08T14:16:32.902Z,29.63
2023-02-08T14:19:01.478Z,28.40
2023-02-08T14:21:32.591Z,29.53
2023-02-08T14:24:01.905Z,30.77
2023-02-08T14:26:28.843Z,28.67
2023-02-08T14:28:57.853Z,29.10
2023-02-08T14:31:36.397Z,28.60
2023-02-08T14:34:03.022Z,27.57
2023-02-08T14:36:32.523Z,27.07
2023-02-08T14:39:26.206Z,25.63
2023-02-08T14:41:54.685Z,26.47
2023-02-08T14:44:39.480Z,26.37
2023-02-08T14:47:36.877Z,27.27
2023-02-08T14:50:16.573Z,27.03
2023-02-08T14:52:54.324Z,24.77
2023-02-08T14:55:26.622Z,25.97
2023-02-08T14:57:58.358Z,27.97
2023-02-08T15:00:27.521Z,25.80
2023-02-08T15:02:54.602Z,26.20
2023-02-08T15:05:29.492Z,26.43
2023-02-08T15:07:58.042Z,26.23
2023-02-08T15:10:26.049Z,26.60
2023-02-08T15:12:54.569Z,26.83
2023-02-08T15:15:34.301Z,28.07
2023-02-08T15:18:02.460Z,27.33
2023-02-08T15:20:31.178Z,28.33
2023-02-08T15:23:01.392Z,28.67
2023-02-08T15:25:35.687Z,28.40
2023-02-08T15:28:14.441Z,28.00
2023-02-08T15:30:41.112Z,28.60
2023-02-08T15:33:09.857Z,29.90
2023-02-08T15:35:36.485Z,29.50
2023-02-08T15:38:06.951Z,29.50
2023-02-08T15:40:34.824Z,29.03
2023-02-08T15:43:07.232Z,29.73
2023-02-08T15:45:34.289Z,28.80
2023-02-08T15:48:01.548Z,28.93
2023-02-08T15:50:28.885Z,29.17
2023-02-08T15:52:59.652Z,30.03
2023-02-08T15:55:28.418Z,28.13
2023-02-08T15:58:00.570Z,27.57
2023-02-08T16:00:31.478Z,28.50
2023-02-08T16:03:09.783Z,27.70
2023-02-08T16:05:36.793Z,28.43
2023-02-08T16:08:03.626Z,29.17
2023-02-08T16:10:34.327Z,27.67
2023-02-08T16:13:03.871Z,27.97
2023-02-08T16:15:45.067Z,28.27
2023-02-08T16:18:33.092Z,27.17
2023-02-08T16:21:01.377Z,28.27
2023-02-08T16:23:30.076Z,28.20
2023-02-08T16:25:57.672Z,28.00
2023-02-08T16:28:33.308Z,31.30
2023-02-08T16:31:02.090Z,49.50
2023-02-08T16:33:29.466Z,47.23
2023-02-08T16:36:01.778Z,42.63
2023-02-08T16:38:36.253Z,46.33
2023-02-08T16:41:12.736Z,34.50
2023-02-08T16:43:47.842Z,28.47
2023-02-08T16:46:21.359Z,29.33
2023-02-08T16:48:55.861Z,28.43
2023-02-08T16:51:27.785Z,28.10
2023-02-08T16:54:02.556Z,26.43
2023-02-08T16:56:29.141Z,26.70
2023-02-08T16:58:55.542Z,29.10
2023-02-08T17:01:23.443Z,29.43
2023-02-08T17:03:50.234Z,31.40
2023-02-08T17:06:29.777Z,33.67
2023-02-08T17:08:57.153Z,30.63
2023-02-08T17:11:23.688Z,28.43
2023-02-08T17:13:52.097Z,27.67
2023-02-08T17:16:21.735Z,26.33
2023-02-08T17:18:48.613Z,26.53
2023-02-08T17:21:15.383Z,24.57
2023-02-08T17:23:42.925Z,23.30
2023-02-08T17:26:15.419Z,25.43
2023-02-08T17:28:42.907Z,25.13
2023-02-08T17:31:11.941Z,25.20
2023-02-08T17:33:40.188Z,25.17
2023-02-08T17:36:08.078Z,24.70
2023-02-08T17:38:38.923Z,25.77
2023-02-08T17:41:13.469Z,25.80
2023-02-08T17:43:39.916Z,25.73
2023-02-08T17:46:15.592Z,24.77
2023-02-08T17:48:42.170Z,25.00
2023-02-08T17:51:16.889Z,24.03
2023-02-08T17:53:43.862Z,25.43
2023-02-08T17:56:13.308Z,25.00
2023-02-08T17:58:40.853Z,25.47
2023-02-08T18:01:08.418Z,24.97
2023-02-08T18:03:34.943Z,25.10
2023-02-08T18:06:01.369Z,26.47
2023-02-08T18:08:27.958Z,25.47
2023-02-08T18:10:54.406Z,27.33
2023-02-08T18:13:20.952Z,26.50
2023-02-08T18:15:48.147Z,25.40
2023-02-08T18:18:15.456Z,28.27
2023-02-08T18:20:46.168Z,25.97
2023-02-08T18:23:13.248Z,26.23
2023-02-08T18:25:41.177Z,27.57
2023-02-08T18:28:07.887Z,26.33
2023-02-08T18:30:34.292Z,26.30
2023-02-08T18:33:00.702Z,27.47
2023-02-08T18:35:27.108Z,28.80
2023-02-08T18:37:53.710Z,28.40
2023-02-08T18:40:20.209Z,27.47
2023-02-08T18:42:46.650Z,27.90
2023-02-08T18:45:13.083Z,30.43
2023-02-08T18:47:39.740Z,29.97
2023-02-08T18:50:06.590Z,28.23
2023-02-08T18:52:33.976Z,28.33
2023-02-08T18:55:00.454Z,29.30
2023-02-08T18:57:26.938Z,29.27
2023-02-08T18:59:54.188Z,28.03
2023-02-08T19:02:22.614Z,29.13
2023-02-08T19:04:49.421Z,28.43
2023-02-08T19:07:16.306Z,30.20
2023-02-08T19:09:43.941Z,29.40
2023-02-08T19:12:10.457Z,29.20
2023-02-08T19:14:36.961Z,30.13
2023-02-08T19:17:03.527Z,29.30
2023-02-08T19:19:30.050Z,30.27
2023-02-08T19:21:56.475Z,29.30
2023-02-08T19:24:22.973Z,28.87
2023-02-08T19:26:49.513Z,27.77
2023-02-08T19:29:17.960Z,30.07
2023-02-08T19:31:44.996Z,28.07
2023-02-08T19:34:12.279Z,29.07
2023-02-08T19:36:42.312Z,28.60
2023-02-08T19:39:08.852Z,29.00
2023-02-08T19:41:37.756Z,28.97
2023-02-08T19:44:05.953Z,29.20
2023-02-08T19:46:34.611Z,30.40
2023-02-08T19:49:01.633Z,28.83
2023-02-08T19:51:30.319Z,27.97
2023-02-08T19:53:57.946Z,26.90
2023-02-08T19:56:24.373Z,25.43
2023-02-08T19:58:50.795Z,27.13
2023-02-08T20:01:22.173Z,25.00
2023-02-08T20:03:49.997Z,24.37
2023-02-08T20:06:19.217Z,25.83
2023-02-08T20:08:45.972Z,24.77
2023-02-08T20:11:21.411Z,25.93
2023-02-08T20:13:48.220Z,23.83
2023-02-08T20:16:14.910Z,23.80
2023-02-08T20:18:41.399Z,23.63
2023-02-08T20:21:08.186Z,23.33
2023-02-08T20:23:35.330Z,23.13
2023-02-08T20:26:10.749Z,24.33
2023-02-08T20:28:39.191Z,24.23
2023-02-08T20:31:10.605Z,23.80
2023-02-08T20:33:37.153Z,24.07
2023-02-08T20:36:09.450Z,23.10
2023-02-08T20:38:36.901Z,24.57
2023-02-08T20:41:05.126Z,22.93
2023-02-08T20:43:31.951Z,23.63
2023-02-08T20:45:58.392Z,21.90
2023-02-08T20:48:24.870Z,21.73
2023-02-08T20:50:51.281Z,23.87
2023-02-08T20:53:17.746Z,22.03
2023-02-08T20:55:44.505Z,22.20
2023-02-08T20:58:11.228Z,20.97
2023-02-08T21:00:42.334Z,21.57
2023-02-08T21:03:09.185Z,22.90
2023-02-08T21:05:35.609Z,22.70
2023-02-08T21:08:02.050Z,22.33
2023-02-08T21:10:28.485Z,23.80
2023-02-08T21:12:54.910Z,23.17
2023-02-08T21:15:21.528Z,22.30
2023-02-08T21:17:48.022Z,23.80
2023-02-08T21:20:15.091Z,22.47
2023-02-08T21:22:41.600Z,23.07
2023-02-08T21:25:09.330Z,23.80
2023-02-08T21:27:35.769Z,22.67
2023-02-08T21:30:02.265Z,21.87
2023-02-08T21:32:28.694Z,21.20
2023-02-08T21:34:55.104Z,23.17
2023-02-08T21:37:21.578Z,23.30
2023-02-08T21:39:48.008Z,22.77
2023-02-08T21:42:14.500Z,22.63
2023-02-08T21:44:41.017Z,22.67
2023-02-08T21:47:07.418Z,20.67
2023-02-08T21:49:52.574Z,22.13
2023-02-08T21:52:37.668Z,22.70
2023-02-08T21:55:04.184Z,23.20
2023-02-08T21:57:37.830Z,23.03
2023-02-08T22:00:08.041Z,23.83
2023-02-08T22:02:34.485Z,22.57
2023-02-08T22:05:02.241Z,22.80
2023-02-08T22:07:29.355Z,22.57
2023-02-08T22:12:40.189Z,23.47
2023-02-08T22:15:13.655Z,23.10
2023-02-08T22:17:40.081Z,23.03
2023-02-08T22:20:07.568Z,24.13
2023-02-08T22:22:34.154Z,23.60
2023-02-08T22:25:00.569Z,23.80
2023-02-08T22:27:27.656Z,22.80
2023-02-08T22:29:54.053Z,22.40
2023-02-08T22:32:20.583Z,22.17
2023-02-08T22:34:47.863Z,23.57
2023-02-08T22:37:15.321Z,23.73
2023-02-08T22:39:42.200Z,22.00
2023-02-08T22:42:13.263Z,24.57
2023-02-08T22:44:42.110Z,24.33
2023-02-08T22:47:09.623Z,23.53
2023-02-08T22:49:36.857Z,23.17
2023-02-08T22:52:05.500Z,23.77
2023-02-08T22:54:32.729Z,23.57
2023-02-08T22:56:59.158Z,23.50
2023-02-08T22:59:25.625Z,24.33
2023-02-08T23:01:52.080Z,24.10
2023-02-08T23:04:18.559Z,24.10
2023-02-08T23:06:44.983Z,23.10
2023-02-08T23:09:12.185Z,24.10
2023-02-08T23:11:38.705Z,22.83
2023-02-08T23:14:05.125Z,23.40
2023-02-08T23:16:32.565Z,22.53
2023-02-08T23:18:59.085Z,23.17
2023-02-08T23:21:25.543Z,23.47
2023-02-08T23:23:51.982Z,22.33
2023-02-08T23:26:20.075Z,23.83
2023-02-08T23:28:48.640Z,22.97
2023-02-08T23:31:15.190Z,23.20
2023-02-08T23:33:41.888Z,23.10
2023-02-08T23:36:11.193Z,22.90
2023-02-08T23:38:37.845Z,23.87
2023-02-08T23:41:05.725Z,23.37
2023-02-08T23:43:32.616Z,23.50
2023-02-08T23:45:59.370Z,22.80
2023-02-08T23:48:25.800Z,21.97
2023-02-08T23:50:59.478Z,22.77
2023-02-08T23:53:26.878Z,22.17
2023-02-08T23:56:14.436Z,23.70
2023-02-08T23:58:42.166Z,22.80
